sensor_id;sensor_type;location;lat;lon;timestamp;temperature;humidity
79513;SHT31;68962;51.980;5.678;2023-04-25T00:02:05;22.3;40.0
79513;SHT31;68962;51.980;5.678;2023-04-25T00:04:36;22.3;40.0
79513;SHT31;68962;51.980;5.678;2023-04-25T00:07:06;22.3;40.1
79513;SHT31;68962;51.980;5.678;2023-04-25T00:09:37;22.3;40.2
79513;SHT31;68962;51.980;5.678;2023-04-25T00:12:07;22.3;40.0
79513;SHT31;68962;51.980;5.678;2023-04-25T00:14:37;22.3;40.0
79513;SHT31;68962;51.980;5.678;2023-04-25T00:17:06;22.3;40.0
79513;SHT31;68962;51.980;5.678;2023-04-25T00:19:36;22.3;39.9
79513;SHT31;68962;51.980;5.678;2023-04-25T00:22:07;22.3;40.0
79513;SHT31;68962;51.980;5.678;2023-04-25T00:24:37;22.3;40.1
79513;SHT31;68962;51.980;5.678;2023-04-25T00:27:07;22.3;40.0
79513;SHT31;68962;51.980;5.678;2023-04-25T00:29:38;22.3;40.1
79513;SHT31;68962;51.980;5.678;2023-04-25T00:32:08;22.3;40.0
79513;SHT31;68962;51.980;5.678;2023-04-25T00:34:37;22.2;40.0
79513;SHT31;68962;51.980;5.678;2023-04-25T00:37:07;22.2;40.2
79513;SHT31;68962;51.980;5.678;2023-04-25T00:39:37;22.2;40.0
79513;SHT31;68962;51.980;5.678;2023-04-25T00:42:08;22.2;40.0
79513;SHT31;68962;51.980;5.678;2023-04-25T00:44:39;22.2;40.2
79513;SHT31;68962;51.980;5.678;2023-04-25T00:47:10;22.2;40.1
79513;SHT31;68962;51.980;5.678;2023-04-25T00:49:40;22.2;40.1
79513;SHT31;68962;51.980;5.678;2023-04-25T00:52:12;22.2;40.0
79513;SHT31;68962;51.980;5.678;2023-04-25T00:54:42;22.2;40.2
79513;SHT31;68962;51.980;5.678;2023-04-25T00:57:12;22.2;40.0
79513;SHT31;68962;51.980;5.678;2023-04-25T00:59:45;22.2;40.0
79513;SHT31;68962;51.980;5.678;2023-04-25T01:02:17;22.2;40.0
79513;SHT31;68962;51.980;5.678;2023-04-25T01:04:48;22.2;40.4
79513;SHT31;68962;51.980;5.678;2023-04-25T01:07:17;22.2;40.6
79513;SHT31;68962;51.980;5.678;2023-04-25T01:09:48;22.2;40.4
79513;SHT31;68962;51.980;5.678;2023-04-25T01:12:17;22.2;40.2
79513;SHT31;68962;51.980;5.678;2023-04-25T01:14:47;22.2;40.0
79513;SHT31;68962;51.980;5.678;2023-04-25T01:17:17;22.2;40.1
79513;SHT31;68962;51.980;5.678;2023-04-25T01:19:49;22.2;40.0
79513;SHT31;68962;51.980;5.678;2023-04-25T01:22:19;22.2;40.0
79513;SHT31;68962;51.980;5.678;2023-04-25T01:24:51;22.2;40.3
79513;SHT31;68962;51.980;5.678;2023-04-25T01:27:21;22.2;40.2
79513;SHT31;68962;51.980;5.678;2023-04-25T01:29:51;22.1;40.2
79513;SHT31;68962;51.980;5.678;2023-04-25T01:32:21;22.1;40.1
79513;SHT31;68962;51.980;5.678;2023-04-25T01:34:52;22.1;40.0
79513;SHT31;68962;51.980;5.678;2023-04-25T01:37:22;22.1;40.0
79513;SHT31;68962;51.980;5.678;2023-04-25T01:39:53;22.1;40.1
79513;SHT31;68962;51.980;5.678;2023-04-25T01:42:23;22.1;40.0
79513;SHT31;68962;51.980;5.678;2023-04-25T01:44:53;22.1;39.9
79513;SHT31;68962;51.980;5.678;2023-04-25T01:47:22;22.1;39.9
79513;SHT31;68962;51.980;5.678;2023-04-25T01:49:52;22.1;39.9
79513;SHT31;68962;51.980;5.678;2023-04-25T01:52:22;22.1;40.0
79513;SHT31;68962;51.980;5.678;2023-04-25T01:54:52;22.1;39.9
79513;SHT31;68962;51.980;5.678;2023-04-25T01:57:23;22.1;39.8
79513;SHT31;68962;51.980;5.678;2023-04-25T01:59:53;22.1;39.8
79513;SHT31;68962;51.980;5.678;2023-04-25T02:02:27;22.1;39.9
79513;SHT31;68962;51.980;5.678;2023-04-25T02:04:57;22.1;39.9
79513;SHT31;68962;51.980;5.678;2023-04-25T02:07:27;22.1;39.9
79513;SHT31;68962;51.980;5.678;2023-04-25T02:09:57;22.1;39.9
79513;SHT31;68962;51.980;5.678;2023-04-25T02:12:27;22.1;39.8
79513;SHT31;68962;51.980;5.678;2023-04-25T02:14:58;22.1;39.9
79513;SHT31;68962;51.980;5.678;2023-04-25T02:17:27;22.1;39.7
79513;SHT31;68962;51.980;5.678;2023-04-25T02:19:59;22.1;39.9
79513;SHT31;68962;51.980;5.678;2023-04-25T02:22:28;22.1;39.8
79513;SHT31;68962;51.980;5.678;2023-04-25T02:24:59;22.1;40.1
79513;SHT31;68962;51.980;5.678;2023-04-25T02:27:29;22.1;39.9
79513;SHT31;68962;51.980;5.678;2023-04-25T02:29:58;22.1;39.9
79513;SHT31;68962;51.980;5.678;2023-04-25T02:32:30;22.1;39.9
79513;SHT31;68962;51.980;5.678;2023-04-25T02:34:59;22.1;39.9
79513;SHT31;68962;51.980;5.678;2023-04-25T02:37:31;22.1;39.8
79513;SHT31;68962;51.980;5.678;2023-04-25T02:40:01;22.1;39.9
79513;SHT31;68962;51.980;5.678;2023-04-25T02:42:32;22.1;39.8
79513;SHT31;68962;51.980;5.678;2023-04-25T02:45:02;22.1;39.8
79513;SHT31;68962;51.980;5.678;2023-04-25T02:47:32;22.1;39.8
79513;SHT31;68962;51.980;5.678;2023-04-25T02:50:01;22.1;39.8
79513;SHT31;68962;51.980;5.678;2023-04-25T02:52:31;22.1;39.7
79513;SHT31;68962;51.980;5.678;2023-04-25T02:55:01;22.0;39.8
79513;SHT31;68962;51.980;5.678;2023-04-25T02:57:30;22.0;39.8
79513;SHT31;68962;51.980;5.678;2023-04-25T03:00:00;22.0;39.7
79513;SHT31;68962;51.980;5.678;2023-04-25T03:02:31;22.0;39.7
79513;SHT31;68962;51.980;5.678;2023-04-25T03:05:00;22.0;39.7
79513;SHT31;68962;51.980;5.678;2023-04-25T03:07:30;22.0;39.7
79513;SHT31;68962;51.980;5.678;2023-04-25T03:10:00;22.0;39.7
79513;SHT31;68962;51.980;5.678;2023-04-25T03:12:29;22.0;39.7
79513;SHT31;68962;51.980;5.678;2023-04-25T03:14:59;22.0;39.7
79513;SHT31;68962;51.980;5.678;2023-04-25T03:17:28;22.0;39.6
79513;SHT31;68962;51.980;5.678;2023-04-25T03:19:58;22.0;39.7
79513;SHT31;68962;51.980;5.678;2023-04-25T03:22:28;22.0;39.6
79513;SHT31;68962;51.980;5.678;2023-04-25T03:24:57;22.0;39.5
79513;SHT31;68962;51.980;5.678;2023-04-25T03:27:28;22.0;39.7
79513;SHT31;68962;51.980;5.678;2023-04-25T03:29:58;22.0;39.7
79513;SHT31;68962;51.980;5.678;2023-04-25T03:32:28;22.0;39.8
79513;SHT31;68962;51.980;5.678;2023-04-25T03:34:57;22.0;39.6
79513;SHT31;68962;51.980;5.678;2023-04-25T03:37:27;22.0;39.6
79513;SHT31;68962;51.980;5.678;2023-04-25T03:39:57;22.0;39.6
79513;SHT31;68962;51.980;5.678;2023-04-25T03:42:26;22.0;39.6
79513;SHT31;68962;51.980;5.678;2023-04-25T03:44:56;22.0;39.5
79513;SHT31;68962;51.980;5.678;2023-04-25T03:47:25;22.0;39.8
79513;SHT31;68962;51.980;5.678;2023-04-25T03:49:55;22.0;39.5
79513;SHT31;68962;51.980;5.678;2023-04-25T03:52:24;22.0;39.5
79513;SHT31;68962;51.980;5.678;2023-04-25T03:54:54;22.0;39.4
79513;SHT31;68962;51.980;5.678;2023-04-25T03:57:23;22.0;39.4
79513;SHT31;68962;51.980;5.678;2023-04-25T03:59:53;21.9;39.5
79513;SHT31;68962;51.980;5.678;2023-04-25T04:02:24;21.9;39.5
79513;SHT31;68962;51.980;5.678;2023-04-25T04:04:54;21.9;39.4
79513;SHT31;68962;51.980;5.678;2023-04-25T04:07:24;21.9;39.6
79513;SHT31;68962;51.980;5.678;2023-04-25T04:09:53;21.9;39.5
79513;SHT31;68962;51.980;5.678;2023-04-25T04:12:23;21.9;39.4
79513;SHT31;68962;51.980;5.678;2023-04-25T04:14:54;21.9;39.5
79513;SHT31;68962;51.980;5.678;2023-04-25T04:17:23;21.9;39.4
79513;SHT31;68962;51.980;5.678;2023-04-25T04:19:53;21.9;39.5
79513;SHT31;68962;51.980;5.678;2023-04-25T04:22:24;21.9;39.4
79513;SHT31;68962;51.980;5.678;2023-04-25T04:24:53;21.9;39.4
79513;SHT31;68962;51.980;5.678;2023-04-25T04:27:24;21.9;39.4
79513;SHT31;68962;51.980;5.678;2023-04-25T04:29:53;21.9;39.3
79513;SHT31;68962;51.980;5.678;2023-04-25T04:32:23;21.9;39.3
79513;SHT31;68962;51.980;5.678;2023-04-25T04:34:53;21.9;39.3
79513;SHT31;68962;51.980;5.678;2023-04-25T04:37:23;21.9;39.3
79513;SHT31;68962;51.980;5.678;2023-04-25T04:39:52;21.9;39.3
79513;SHT31;68962;51.980;5.678;2023-04-25T04:42:22;21.9;39.2
79513;SHT31;68962;51.980;5.678;2023-04-25T04:44:52;21.9;39.3
79513;SHT31;68962;51.980;5.678;2023-04-25T04:47:22;21.9;39.2
79513;SHT31;68962;51.980;5.678;2023-04-25T04:49:54;21.9;39.3
79513;SHT31;68962;51.980;5.678;2023-04-25T04:52:26;21.9;39.2
79513;SHT31;68962;51.980;5.678;2023-04-25T04:54:57;21.9;39.2
79513;SHT31;68962;51.980;5.678;2023-04-25T04:57:27;21.9;39.3
79513;SHT31;68962;51.980;5.678;2023-04-25T04:59:57;21.9;39.5
79513;SHT31;68962;51.980;5.678;2023-04-25T05:02:26;21.9;39.3
79513;SHT31;68962;51.980;5.678;2023-04-25T05:04:56;21.9;39.3
79513;SHT31;68962;51.980;5.678;2023-04-25T05:07:26;21.9;39.2
79513;SHT31;68962;51.980;5.678;2023-04-25T05:09:55;21.9;39.3
79513;SHT31;68962;51.980;5.678;2023-04-25T05:12:26;21.9;39.6
79513;SHT31;68962;51.980;5.678;2023-04-25T05:14:56;21.9;39.7
79513;SHT31;68962;51.980;5.678;2023-04-25T05:17:25;21.9;39.6
79513;SHT31;68962;51.980;5.678;2023-04-25T05:19:55;21.9;39.7
79513;SHT31;68962;51.980;5.678;2023-04-25T05:22:24;21.9;40.2
79513;SHT31;68962;51.980;5.678;2023-04-25T05:24:54;21.9;40.6
79513;SHT31;68962;51.980;5.678;2023-04-25T05:27:23;21.9;40.3
79513;SHT31;68962;51.980;5.678;2023-04-25T05:29:53;21.9;40.4
79513;SHT31;68962;51.980;5.678;2023-04-25T05:32:23;21.9;40.5
79513;SHT31;68962;51.980;5.678;2023-04-25T05:34:52;21.9;40.4
79513;SHT31;68962;51.980;5.678;2023-04-25T05:37:22;21.9;40.4
79513;SHT31;68962;51.980;5.678;2023-04-25T05:39:51;21.9;40.1
79513;SHT31;68962;51.980;5.678;2023-04-25T05:42:21;21.9;40.8
79513;SHT31;68962;51.980;5.678;2023-04-25T05:44:51;21.9;41.0
79513;SHT31;68962;51.980;5.678;2023-04-25T05:47:20;21.9;41.1
79513;SHT31;68962;51.980;5.678;2023-04-25T05:49:49;21.9;40.7
79513;SHT31;68962;51.980;5.678;2023-04-25T05:52:19;21.9;41.1
79513;SHT31;68962;51.980;5.678;2023-04-25T05:54:48;21.9;41.2
79513;SHT31;68962;51.980;5.678;2023-04-25T05:57:23;21.9;40.7
79513;SHT31;68962;51.980;5.678;2023-04-25T05:59:53;21.9;41.2
79513;SHT31;68962;51.980;5.678;2023-04-25T06:02:23;21.9;41.0
79513;SHT31;68962;51.980;5.678;2023-04-25T06:04:53;22.0;41.0
79513;SHT31;68962;51.980;5.678;2023-04-25T06:07:23;22.0;40.5
79513;SHT31;68962;51.980;5.678;2023-04-25T06:09:52;22.0;40.5
79513;SHT31;68962;51.980;5.678;2023-04-25T06:12:22;22.0;40.5
79513;SHT31;68962;51.980;5.678;2023-04-25T06:14:52;22.0;41.0
79513;SHT31;68962;51.980;5.678;2023-04-25T06:17:21;22.1;40.5
79513;SHT31;68962;51.980;5.678;2023-04-25T06:19:51;22.1;40.8
79513;SHT31;68962;51.980;5.678;2023-04-25T06:22:20;22.1;40.7
79513;SHT31;68962;51.980;5.678;2023-04-25T06:24:50;22.1;40.6
79513;SHT31;68962;51.980;5.678;2023-04-25T06:27:19;22.1;40.7
79513;SHT31;68962;51.980;5.678;2023-04-25T06:29:49;22.2;40.9
79513;SHT31;68962;51.980;5.678;2023-04-25T06:32:18;22.2;40.9
79513;SHT31;68962;51.980;5.678;2023-04-25T06:34:48;22.2;40.9
79513;SHT31;68962;51.980;5.678;2023-04-25T06:37:18;22.2;40.9
79513;SHT31;68962;51.980;5.678;2023-04-25T06:39:47;22.3;40.9
79513;SHT31;68962;51.980;5.678;2023-04-25T06:42:16;22.3;40.8
79513;SHT31;68962;51.980;5.678;2023-04-25T06:44:46;22.4;40.7
79513;SHT31;68962;51.980;5.678;2023-04-25T06:47:16;22.4;40.7
79513;SHT31;68962;51.980;5.678;2023-04-25T06:49:45;22.4;40.6
79513;SHT31;68962;51.980;5.678;2023-04-25T06:52:15;22.4;40.4
79513;SHT31;68962;51.980;5.678;2023-04-25T06:54:45;22.5;40.3
79513;SHT31;68962;51.980;5.678;2023-04-25T06:57:14;22.5;40.5
79513;SHT31;68962;51.980;5.678;2023-04-25T06:59:44;22.5;40.7
79513;SHT31;68962;51.980;5.678;2023-04-25T07:02:13;22.5;40.5
79513;SHT31;68962;51.980;5.678;2023-04-25T07:04:43;22.5;40.5
79513;SHT31;68962;51.980;5.678;2023-04-25T07:07:13;22.6;40.5
79513;SHT31;68962;51.980;5.678;2023-04-25T07:09:44;22.6;39.3
79513;SHT31;68962;51.980;5.678;2023-04-25T07:12:13;22.6;39.8
79513;SHT31;68962;51.980;5.678;2023-04-25T07:14:43;22.7;40.1
79513;SHT31;68962;51.980;5.678;2023-04-25T07:17:13;22.7;40.5
79513;SHT31;68962;51.980;5.678;2023-04-25T07:19:42;22.7;40.9
79513;SHT31;68962;51.980;5.678;2023-04-25T07:22:12;22.8;40.5
79513;SHT31;68962;51.980;5.678;2023-04-25T07:24:42;22.9;40.8
79513;SHT31;68962;51.980;5.678;2023-04-25T07:27:14;23.0;40.4
79513;SHT31;68962;51.980;5.678;2023-04-25T07:29:44;23.1;40.0
79513;SHT31;68962;51.980;5.678;2023-04-25T07:32:13;23.3;39.6
79513;SHT31;68962;51.980;5.678;2023-04-25T07:34:43;23.5;39.2
79513;SHT31;68962;51.980;5.678;2023-04-25T07:37:13;23.6;38.8
79513;SHT31;68962;51.980;5.678;2023-04-25T07:39:45;23.7;39.0
79513;SHT31;68962;51.980;5.678;2023-04-25T07:42:15;23.7;39.2
79513;SHT31;68962;51.980;5.678;2023-04-25T07:44:45;23.8;39.4
79513;SHT31;68962;51.980;5.678;2023-04-25T07:47:14;23.9;39.6
79513;SHT31;68962;51.980;5.678;2023-04-25T07:49:46;24.0;39.3
79513;SHT31;68962;51.980;5.678;2023-04-25T07:52:16;24.0;39.1
79513;SHT31;68962;51.980;5.678;2023-04-25T07:54:46;24.1;39.2
79513;SHT31;68962;51.980;5.678;2023-04-25T07:57:16;24.2;38.8
79513;SHT31;68962;51.980;5.678;2023-04-25T07:59:48;24.3;39.0
79513;SHT31;68962;51.980;5.678;2023-04-25T08:02:18;24.4;38.8
79513;SHT31;68962;51.980;5.678;2023-04-25T08:04:49;24.6;38.5
79513;SHT31;68962;51.980;5.678;2023-04-25T08:07:21;24.7;38.3
79513;SHT31;68962;51.980;5.678;2023-04-25T08:09:50;24.9;38.7
79513;SHT31;68962;51.980;5.678;2023-04-25T08:12:20;25.0;38.0
79513;SHT31;68962;51.980;5.678;2023-04-25T08:14:49;25.1;35.4
79513;SHT31;68962;51.980;5.678;2023-04-25T08:17:19;25.2;36.2
79513;SHT31;68962;51.980;5.678;2023-04-25T08:19:49;25.3;36.4
79513;SHT31;68962;51.980;5.678;2023-04-25T08:22:18;25.3;35.9
79513;SHT31;68962;51.980;5.678;2023-04-25T08:24:48;25.4;36.3
79513;SHT31;68962;51.980;5.678;2023-04-25T08:27:17;25.4;36.1
79513;SHT31;68962;51.980;5.678;2023-04-25T08:29:48;25.4;36.2
79513;SHT31;68962;51.980;5.678;2023-04-25T08:32:18;25.5;36.1
79513;SHT31;68962;51.980;5.678;2023-04-25T08:34:50;25.5;36.0
79513;SHT31;68962;51.980;5.678;2023-04-25T08:37:22;25.4;36.0
79513;SHT31;68962;51.980;5.678;2023-04-25T08:39:51;25.4;36.1
79513;SHT31;68962;51.980;5.678;2023-04-25T08:42:23;25.4;36.2
79513;SHT31;68962;51.980;5.678;2023-04-25T08:44:54;25.4;36.0
79513;SHT31;68962;51.980;5.678;2023-04-25T08:47:26;25.4;36.2
79513;SHT31;68962;51.980;5.678;2023-04-25T08:49:58;25.4;36.2
79513;SHT31;68962;51.980;5.678;2023-04-25T08:52:36;25.4;36.0
79513;SHT31;68962;51.980;5.678;2023-04-25T08:55:09;25.4;35.8
79513;SHT31;68962;51.980;5.678;2023-04-25T08:57:39;25.4;36.0
79513;SHT31;68962;51.980;5.678;2023-04-25T09:00:11;25.4;35.9
79513;SHT31;68962;51.980;5.678;2023-04-25T09:02:42;25.4;35.9
79513;SHT31;68962;51.980;5.678;2023-04-25T09:05:13;25.5;36.0
79513;SHT31;68962;51.980;5.678;2023-04-25T09:07:43;25.5;36.0
79513;SHT31;68962;51.980;5.678;2023-04-25T09:10:12;25.5;35.8
79513;SHT31;68962;51.980;5.678;2023-04-25T09:12:42;25.5;35.7
79513;SHT31;68962;51.980;5.678;2023-04-25T09:15:12;25.4;35.8
79513;SHT31;68962;51.980;5.678;2023-04-25T09:17:43;25.4;35.8
79513;SHT31;68962;51.980;5.678;2023-04-25T09:20:14;25.4;35.8
79513;SHT31;68962;51.980;5.678;2023-04-25T09:22:45;25.3;33.5
79513;SHT31;68962;51.980;5.678;2023-04-25T09:25:15;25.3;34.1
79513;SHT31;68962;51.980;5.678;2023-04-25T09:27:52;25.2;34.2
79513;SHT31;68962;51.980;5.678;2023-04-25T09:30:31;25.1;34.5
79513;SHT31;68962;51.980;5.678;2023-04-25T09:33:06;25.1;34.9
79513;SHT31;68962;51.980;5.678;2023-04-25T09:35:38;25.2;34.9
79513;SHT31;68962;51.980;5.678;2023-04-25T09:38:14;25.4;34.8
79513;SHT31;68962;51.980;5.678;2023-04-25T09:40:46;25.6;34.0
79513;SHT31;68962;51.980;5.678;2023-04-25T09:43:21;25.9;34.9
79513;SHT31;68962;51.980;5.678;2023-04-25T09:45:53;26.2;34.2
79513;SHT31;68962;51.980;5.678;2023-04-25T09:48:26;26.6;33.5
79513;SHT31;68962;51.980;5.678;2023-04-25T09:51:10;27.0;32.9
79513;SHT31;68962;51.980;5.678;2023-04-25T09:53:42;27.4;32.0
79513;SHT31;68962;51.980;5.678;2023-04-25T09:56:13;27.8;31.5
79513;SHT31;68962;51.980;5.678;2023-04-25T09:58:43;28.1;31.2
79513;SHT31;68962;51.980;5.678;2023-04-25T10:01:12;28.4;30.8
79513;SHT31;68962;51.980;5.678;2023-04-25T10:03:43;28.6;30.2
79513;SHT31;68962;51.980;5.678;2023-04-25T10:06:19;28.7;29.6
79513;SHT31;68962;51.980;5.678;2023-04-25T10:08:52;28.7;29.5
79513;SHT31;68962;51.980;5.678;2023-04-25T10:11:25;28.7;28.8
79513;SHT31;68962;51.980;5.678;2023-04-25T10:13:56;28.7;29.3
79513;SHT31;68962;51.980;5.678;2023-04-25T10:16:26;28.6;29.5
79513;SHT31;68962;51.980;5.678;2023-04-25T10:18:57;28.5;29.9
79513;SHT31;68962;51.980;5.678;2023-04-25T10:21:29;28.3;30.1
79513;SHT31;68962;51.980;5.678;2023-04-25T10:24:01;28.2;30.1
79513;SHT31;68962;51.980;5.678;2023-04-25T10:26:32;28.0;30.4
79513;SHT31;68962;51.980;5.678;2023-04-25T10:29:05;27.9;30.5
79513;SHT31;68962;51.980;5.678;2023-04-25T10:31:46;27.7;30.6
79513;SHT31;68962;51.980;5.678;2023-04-25T10:34:16;27.5;31.1
79513;SHT31;68962;51.980;5.678;2023-04-25T10:36:50;27.3;31.3
79513;SHT31;68962;51.980;5.678;2023-04-25T10:39:27;27.2;31.1
79513;SHT31;68962;51.980;5.678;2023-04-25T10:41:58;27.0;31.3
79513;SHT31;68962;51.980;5.678;2023-04-25T10:44:29;26.9;29.8
79513;SHT31;68962;51.980;5.678;2023-04-25T10:47:00;26.8;30.8
79513;SHT31;68962;51.980;5.678;2023-04-25T10:49:34;26.7;30.7
79513;SHT31;68962;51.980;5.678;2023-04-25T10:52:18;26.6;30.7
79513;SHT31;68962;51.980;5.678;2023-04-25T10:54:51;26.5;31.4
79513;SHT31;68962;51.980;5.678;2023-04-25T10:57:38;26.4;32.0
79513;SHT31;68962;51.980;5.678;2023-04-25T11:00:12;26.3;32.2
79513;SHT31;68962;51.980;5.678;2023-04-25T11:02:43;26.2;32.2
79513;SHT31;68962;51.980;5.678;2023-04-25T11:05:20;26.1;33.5
79513;SHT31;68962;51.980;5.678;2023-04-25T11:07:54;26.0;33.5
79513;SHT31;68962;51.980;5.678;2023-04-25T11:10:27;26.0;33.8
79513;SHT31;68962;51.980;5.678;2023-04-25T11:12:58;25.9;34.2
79513;SHT31;68962;51.980;5.678;2023-04-25T11:15:28;25.9;34.4
79513;SHT31;68962;51.980;5.678;2023-04-25T11:17:57;25.8;34.5
79513;SHT31;68962;51.980;5.678;2023-04-25T11:20:27;25.8;34.3
79513;SHT31;68962;51.980;5.678;2023-04-25T11:22:59;25.7;33.8
79513;SHT31;68962;51.980;5.678;2023-04-25T11:25:29;25.6;34.4
79513;SHT31;68962;51.980;5.678;2023-04-25T11:27:59;25.6;34.3
79513;SHT31;68962;51.980;5.678;2023-04-25T11:30:30;25.6;34.7
79513;SHT31;68962;51.980;5.678;2023-04-25T11:32:59;25.5;34.7
79513;SHT31;68962;51.980;5.678;2023-04-25T11:35:30;25.5;34.4
79513;SHT31;68962;51.980;5.678;2023-04-25T11:38:01;25.5;34.7
79513;SHT31;68962;51.980;5.678;2023-04-25T11:40:32;25.4;34.6
79513;SHT31;68962;51.980;5.678;2023-04-25T11:43:02;25.4;34.7
79513;SHT31;68962;51.980;5.678;2023-04-25T11:45:32;25.4;34.5
79513;SHT31;68962;51.980;5.678;2023-04-25T11:48:05;25.3;34.7
79513;SHT31;68962;51.980;5.678;2023-04-25T11:50:36;25.3;34.7
79513;SHT31;68962;51.980;5.678;2023-04-25T11:53:08;25.3;34.8
79513;SHT31;68962;51.980;5.678;2023-04-25T11:55:38;25.3;34.8
79513;SHT31;68962;51.980;5.678;2023-04-25T11:58:08;25.2;34.0
79513;SHT31;68962;51.980;5.678;2023-04-25T12:00:42;25.2;33.9
79513;SHT31;68962;51.980;5.678;2023-04-25T12:03:13;25.1;34.3
79513;SHT31;68962;51.980;5.678;2023-04-25T12:05:45;25.1;34.3
79513;SHT31;68962;51.980;5.678;2023-04-25T12:08:16;25.1;34.5
79513;SHT31;68962;51.980;5.678;2023-04-25T12:10:46;25.0;34.7
79513;SHT31;68962;51.980;5.678;2023-04-25T12:13:23;25.0;34.1
79513;SHT31;68962;51.980;5.678;2023-04-25T12:15:55;24.9;34.2
79513;SHT31;68962;51.980;5.678;2023-04-25T12:18:25;24.9;35.1
79513;SHT31;68962;51.980;5.678;2023-04-25T12:20:55;24.9;35.5
79513;SHT31;68962;51.980;5.678;2023-04-25T12:23:28;24.8;35.5
79513;SHT31;68962;51.980;5.678;2023-04-25T12:25:58;24.8;35.8
79513;SHT31;68962;51.980;5.678;2023-04-25T12:28:32;24.8;35.8
79513;SHT31;68962;51.980;5.678;2023-04-25T12:31:03;24.7;35.9
79513;SHT31;68962;51.980;5.678;2023-04-25T12:33:34;24.7;36.2
79513;SHT31;68962;51.980;5.678;2023-04-25T12:36:06;24.7;36.2
79513;SHT31;68962;51.980;5.678;2023-04-25T12:38:40;24.6;36.0
79513;SHT31;68962;51.980;5.678;2023-04-25T12:41:10;24.6;35.4
79513;SHT31;68962;51.980;5.678;2023-04-25T12:43:40;24.6;35.9
79513;SHT31;68962;51.980;5.678;2023-04-25T12:46:09;24.6;36.1
79513;SHT31;68962;51.980;5.678;2023-04-25T12:48:39;24.5;36.0
79513;SHT31;68962;51.980;5.678;2023-04-25T12:51:08;24.5;36.2
79513;SHT31;68962;51.980;5.678;2023-04-25T12:53:38;24.5;36.2
79513;SHT31;68962;51.980;5.678;2023-04-25T12:56:08;24.5;36.1
79513;SHT31;68962;51.980;5.678;2023-04-25T12:58:40;24.5;36.5
79513;SHT31;68962;51.980;5.678;2023-04-25T13:01:11;24.5;36.5
79513;SHT31;68962;51.980;5.678;2023-04-25T13:03:41;24.4;36.6
79513;SHT31;68962;51.980;5.678;2023-04-25T13:06:11;24.4;36.8
79513;SHT31;68962;51.980;5.678;2023-04-25T13:08:41;24.4;36.9
79513;SHT31;68962;51.980;5.678;2023-04-25T13:11:10;24.4;37.0
79513;SHT31;68962;51.980;5.678;2023-04-25T13:13:42;24.4;36.8
79513;SHT31;68962;51.980;5.678;2023-04-25T13:16:12;24.4;36.9
79513;SHT31;68962;51.980;5.678;2023-04-25T13:18:42;24.3;37.2
79513;SHT31;68962;51.980;5.678;2023-04-25T13:21:12;24.3;37.0
79513;SHT31;68962;51.980;5.678;2023-04-25T13:23:42;24.3;37.3
79513;SHT31;68962;51.980;5.678;2023-04-25T13:26:14;24.3;37.3
79513;SHT31;68962;51.980;5.678;2023-04-25T13:28:43;24.3;37.5
79513;SHT31;68962;51.980;5.678;2023-04-25T13:31:12;24.3;37.5
79513;SHT31;68962;51.980;5.678;2023-04-25T13:33:43;24.2;37.7
79513;SHT31;68962;51.980;5.678;2023-04-25T13:36:13;24.2;37.8
79513;SHT31;68962;51.980;5.678;2023-04-25T13:38:42;24.2;38.0
79513;SHT31;68962;51.980;5.678;2023-04-25T13:41:14;24.2;38.1
79513;SHT31;68962;51.980;5.678;2023-04-25T13:43:46;24.2;38.2
79513;SHT31;68962;51.980;5.678;2023-04-25T13:46:16;24.2;38.2
79513;SHT31;68962;51.980;5.678;2023-04-25T13:48:46;24.2;38.2
79513;SHT31;68962;51.980;5.678;2023-04-25T13:51:16;24.2;38.4
79513;SHT31;68962;51.980;5.678;2023-04-25T13:53:46;24.2;38.4
79513;SHT31;68962;51.980;5.678;2023-04-25T13:56:16;24.2;38.4
79513;SHT31;68962;51.980;5.678;2023-04-25T13:58:47;24.2;38.2
79513;SHT31;68962;51.980;5.678;2023-04-25T14:01:16;24.2;38.1
79513;SHT31;68962;51.980;5.678;2023-04-25T14:03:47;24.2;38.0
79513;SHT31;68962;51.980;5.678;2023-04-25T14:06:17;24.1;38.4
79513;SHT31;68962;51.980;5.678;2023-04-25T14:08:51;24.1;38.3
79513;SHT31;68962;51.980;5.678;2023-04-25T14:11:21;24.1;38.3
79513;SHT31;68962;51.980;5.678;2023-04-25T14:13:50;24.1;38.4
79513;SHT31;68962;51.980;5.678;2023-04-25T14:16:20;24.1;38.2
79513;SHT31;68962;51.980;5.678;2023-04-25T14:18:50;24.1;38.3
79513;SHT31;68962;51.980;5.678;2023-04-25T14:21:20;24.1;38.3
79513;SHT31;68962;51.980;5.678;2023-04-25T14:23:49;24.1;38.1
79513;SHT31;68962;51.980;5.678;2023-04-25T14:26:19;24.1;38.5
79513;SHT31;68962;51.980;5.678;2023-04-25T14:28:48;24.1;38.5
79513;SHT31;68962;51.980;5.678;2023-04-25T14:31:18;24.0;38.3
79513;SHT31;68962;51.980;5.678;2023-04-25T14:33:48;24.0;38.5
79513;SHT31;68962;51.980;5.678;2023-04-25T14:36:17;24.0;38.7
79513;SHT31;68962;51.980;5.678;2023-04-25T14:38:47;24.0;38.5
79513;SHT31;68962;51.980;5.678;2023-04-25T14:41:17;24.0;38.6
79513;SHT31;68962;51.980;5.678;2023-04-25T14:43:48;24.0;38.8
79513;SHT31;68962;51.980;5.678;2023-04-25T14:46:18;23.9;38.7
79513;SHT31;68962;51.980;5.678;2023-04-25T14:48:49;23.9;38.6
79513;SHT31;68962;51.980;5.678;2023-04-25T14:51:19;23.9;38.5
79513;SHT31;68962;51.980;5.678;2023-04-25T14:53:49;23.9;38.6
79513;SHT31;68962;51.980;5.678;2023-04-25T14:56:19;23.9;38.5
79513;SHT31;68962;51.980;5.678;2023-04-25T14:58:49;23.9;38.5
79513;SHT31;68962;51.980;5.678;2023-04-25T15:01:21;23.9;38.5
79513;SHT31;68962;51.980;5.678;2023-04-25T15:03:50;23.9;38.6
79513;SHT31;68962;51.980;5.678;2023-04-25T15:06:20;23.9;38.7
79513;SHT31;68962;51.980;5.678;2023-04-25T15:08:50;23.8;38.8
79513;SHT31;68962;51.980;5.678;2023-04-25T15:11:20;23.8;39.0
79513;SHT31;68962;51.980;5.678;2023-04-25T15:13:50;23.8;38.8
79513;SHT31;68962;51.980;5.678;2023-04-25T15:16:19;23.8;38.8
79513;SHT31;68962;51.980;5.678;2023-04-25T15:18:49;23.8;38.6
79513;SHT31;68962;51.980;5.678;2023-04-25T15:21:18;23.8;39.1
79513;SHT31;68962;51.980;5.678;2023-04-25T15:23:49;23.8;39.1
79513;SHT31;68962;51.980;5.678;2023-04-25T15:26:18;23.8;39.2
79513;SHT31;68962;51.980;5.678;2023-04-25T15:28:48;23.8;39.2
79513;SHT31;68962;51.980;5.678;2023-04-25T15:31:18;23.8;39.1
79513;SHT31;68962;51.980;5.678;2023-04-25T15:33:48;23.8;39.0
79513;SHT31;68962;51.980;5.678;2023-04-25T15:36:17;23.8;39.2
79513;SHT31;68962;51.980;5.678;2023-04-25T15:38:48;23.8;39.2
79513;SHT31;68962;51.980;5.678;2023-04-25T15:41:18;23.8;39.3
79513;SHT31;68962;51.980;5.678;2023-04-25T15:43:48;23.8;39.4
79513;SHT31;68962;51.980;5.678;2023-04-25T15:46:18;23.7;39.2
79513;SHT31;68962;51.980;5.678;2023-04-25T15:48:48;23.7;39.2
79513;SHT31;68962;51.980;5.678;2023-04-25T15:51:17;23.7;39.0
79513;SHT31;68962;51.980;5.678;2023-04-25T15:53:47;23.7;39.3
79513;SHT31;68962;51.980;5.678;2023-04-25T15:56:17;23.7;39.3
79513;SHT31;68962;51.980;5.678;2023-04-25T15:58:46;23.7;39.2
79513;SHT31;68962;51.980;5.678;2023-04-25T16:01:16;23.7;39.3
79513;SHT31;68962;51.980;5.678;2023-04-25T16:03:50;23.7;39.2
79513;SHT31;68962;51.980;5.678;2023-04-25T16:06:20;23.7;39.3
79513;SHT31;68962;51.980;5.678;2023-04-25T16:08:50;23.7;39.2
79513;SHT31;68962;51.980;5.678;2023-04-25T16:11:20;23.7;39.1
79513;SHT31;68962;51.980;5.678;2023-04-25T16:13:50;23.7;39.1
79513;SHT31;68962;51.980;5.678;2023-04-25T16:16:20;23.6;39.1
79513;SHT31;68962;51.980;5.678;2023-04-25T16:18:49;23.6;39.0
79513;SHT31;68962;51.980;5.678;2023-04-25T16:21:19;23.6;39.0
79513;SHT31;68962;51.980;5.678;2023-04-25T16:23:48;23.6;39.0